Terminal Aerodrome Forecast
Issued by NWS Medford, OR

Home | Current Version | Previous Version | Text Only | Print | Product List | Glossary On
Versions: 1 2 3 4 5 6 7 8 9 10 11 12
477
FTUS46 KMFR 191146
TAFMFR
TAF
KMFR 191146Z 1912/2012 17005KT P6SM BKN250
     FM192300 24010KT P6SM -RA SCT030 OVC040
     FM200100 29012G20KT 5SM -RA BR OVC025
     FM200500 28010KT P6SM -SHRA SCT025 OVC035=

USA.gov is the U.S. government's official web portal to all federal, state and local government web resources and services.